sensor_id;sensor_type;location;lat;lon;timestamp;temperature;humidity
21582;DHT22;10952;50.836;4.348;2023-03-24T00:01:05;13.50;99.90
21582;DHT22;10952;50.836;4.348;2023-03-24T00:03:31;13.50;99.90
21582;DHT22;10952;50.836;4.348;2023-03-24T00:05:59;13.40;99.90
21582;DHT22;10952;50.836;4.348;2023-03-24T00:08:31;13.50;99.90
21582;DHT22;10952;50.836;4.348;2023-03-24T00:11:10;13.50;99.90
21582;DHT22;10952;50.836;4.348;2023-03-24T00:13:37;13.40;99.90
21582;DHT22;10952;50.836;4.348;2023-03-24T00:16:09;13.40;99.90
21582;DHT22;10952;50.836;4.348;2023-03-24T00:18:36;13.40;99.90
21582;DHT22;10952;50.836;4.348;2023-03-24T00:21:03;13.40;99.90
21582;DHT22;10952;50.836;4.348;2023-03-24T00:23:29;13.50;99.90
21582;DHT22;10952;50.836;4.348;2023-03-24T00:26:11;13.50;99.90
21582;DHT22;10952;50.836;4.348;2023-03-24T00:28:41;13.50;99.90
21582;DHT22;10952;50.836;4.348;2023-03-24T00:31:08;13.50;99.90
21582;DHT22;10952;50.836;4.348;2023-03-24T00:33:35;13.50;99.90
21582;DHT22;10952;50.836;4.348;2023-03-24T00:36:03;13.50;99.90
21582;DHT22;10952;50.836;4.348;2023-03-24T00:38:30;13.60;99.90
21582;DHT22;10952;50.836;4.348;2023-03-24T00:40:56;13.60;99.90
21582;DHT22;10952;50.836;4.348;2023-03-24T00:43:23;13.60;99.90
21582;DHT22;10952;50.836;4.348;2023-03-24T00:45:49;13.60;99.90
21582;DHT22;10952;50.836;4.348;2023-03-24T00:48:17;13.70;99.90
21582;DHT22;10952;50.836;4.348;2023-03-24T00:50:46;13.70;99.90
21582;DHT22;10952;50.836;4.348;2023-03-24T00:53:14;13.80;99.90
21582;DHT22;10952;50.836;4.348;2023-03-24T00:55:41;13.80;99.90
21582;DHT22;10952;50.836;4.348;2023-03-24T00:58:11;13.80;99.90
21582;DHT22;10952;50.836;4.348;2023-03-24T01:00:46;13.80;99.90
21582;DHT22;10952;50.836;4.348;2023-03-24T01:03:12;13.80;99.90
21582;DHT22;10952;50.836;4.348;2023-03-24T01:05:38;13.90;99.90
21582;DHT22;10952;50.836;4.348;2023-03-24T01:08:04;13.90;99.90
21582;DHT22;10952;50.836;4.348;2023-03-24T01:10:37;13.90;99.90
21582;DHT22;10952;50.836;4.348;2023-03-24T01:13:15;14.00;99.90
21582;DHT22;10952;50.836;4.348;2023-03-24T01:15:41;14.00;99.90
21582;DHT22;10952;50.836;4.348;2023-03-24T01:18:07;14.10;99.90
21582;DHT22;10952;50.836;4.348;2023-03-24T01:20:34;14.10;99.90
21582;DHT22;10952;50.836;4.348;2023-03-24T01:23:02;14.20;99.90
21582;DHT22;10952;50.836;4.348;2023-03-24T01:25:29;14.20;99.90
21582;DHT22;10952;50.836;4.348;2023-03-24T01:27:55;14.30;99.90
21582;DHT22;10952;50.836;4.348;2023-03-24T01:30:24;14.30;99.90
21582;DHT22;10952;50.836;4.348;2023-03-24T01:32:51;14.30;99.90
21582;DHT22;10952;50.836;4.348;2023-03-24T01:35:18;14.30;99.90
21582;DHT22;10952;50.836;4.348;2023-03-24T01:37:44;14.40;99.90
21582;DHT22;10952;50.836;4.348;2023-03-24T01:40:18;14.50;99.90
21582;DHT22;10952;50.836;4.348;2023-03-24T01:42:44;14.50;99.90
21582;DHT22;10952;50.836;4.348;2023-03-24T01:48:36;14.50;99.90
21582;DHT22;10952;50.836;4.348;2023-03-24T01:54:00;14.50;99.90
21582;DHT22;10952;50.836;4.348;2023-03-24T01:56:30;14.60;99.90
21582;DHT22;10952;50.836;4.348;2023-03-24T01:59:00;14.60;99.90
21582;DHT22;10952;50.836;4.348;2023-03-24T02:01:28;14.60;99.90
21582;DHT22;10952;50.836;4.348;2023-03-24T02:04:00;14.50;99.90
21582;DHT22;10952;50.836;4.348;2023-03-24T02:06:29;14.50;99.90
21582;DHT22;10952;50.836;4.348;2023-03-24T02:08:58;14.40;99.90
21582;DHT22;10952;50.836;4.348;2023-03-24T02:11:32;14.40;99.90
21582;DHT22;10952;50.836;4.348;2023-03-24T02:13:58;14.40;99.90
21582;DHT22;10952;50.836;4.348;2023-03-24T02:22:35;13.80;99.90
21582;DHT22;10952;50.836;4.348;2023-03-24T02:42:05;13.00;99.90
21582;DHT22;10952;50.836;4.348;2023-03-24T02:47:31;12.70;99.90
21582;DHT22;10952;50.836;4.348;2023-03-24T02:52:49;12.60;99.90
21582;DHT22;10952;50.836;4.348;2023-03-24T02:55:28;12.50;99.90
21582;DHT22;10952;50.836;4.348;2023-03-24T02:58:07;12.40;99.90
21582;DHT22;10952;50.836;4.348;2023-03-24T03:00:53;12.50;99.90
21582;DHT22;10952;50.836;4.348;2023-03-24T03:03:31;12.60;99.90
21582;DHT22;10952;50.836;4.348;2023-03-24T03:08:33;12.60;99.90
21582;DHT22;10952;50.836;4.348;2023-03-24T03:11:02;12.60;99.90
21582;DHT22;10952;50.836;4.348;2023-03-24T03:13:33;12.70;99.90
21582;DHT22;10952;50.836;4.348;2023-03-24T03:16:06;12.60;99.90
21582;DHT22;10952;50.836;4.348;2023-03-24T03:18:43;12.60;99.90
21582;DHT22;10952;50.836;4.348;2023-03-24T03:21:16;12.40;99.90
21582;DHT22;10952;50.836;4.348;2023-03-24T03:24:10;12.30;99.90
21582;DHT22;10952;50.836;4.348;2023-03-24T03:26:37;12.30;99.90
21582;DHT22;10952;50.836;4.348;2023-03-24T03:29:12;12.30;99.90
21582;DHT22;10952;50.836;4.348;2023-03-24T03:31:44;12.20;99.90
21582;DHT22;10952;50.836;4.348;2023-03-24T03:39:59;12.10;99.90
21582;DHT22;10952;50.836;4.348;2023-03-24T03:42:26;12.10;99.90
21582;DHT22;10952;50.836;4.348;2023-03-24T03:44:52;12.00;99.90
21582;DHT22;10952;50.836;4.348;2023-03-24T03:47:18;12.00;99.90
21582;DHT22;10952;50.836;4.348;2023-03-24T03:49:46;12.00;99.90
21582;DHT22;10952;50.836;4.348;2023-03-24T03:52:12;12.10;99.90
21582;DHT22;10952;50.836;4.348;2023-03-24T03:54:39;12.10;99.90
21582;DHT22;10952;50.836;4.348;2023-03-24T03:57:06;12.10;99.90
21582;DHT22;10952;50.836;4.348;2023-03-24T03:59:34;12.00;99.90
21582;DHT22;10952;50.836;4.348;2023-03-24T04:11:03;12.20;99.90
21582;DHT22;10952;50.836;4.348;2023-03-24T04:13:48;12.10;99.90
21582;DHT22;10952;50.836;4.348;2023-03-24T04:16:45;12.10;99.90
21582;DHT22;10952;50.836;4.348;2023-03-24T04:19:31;12.20;99.90
21582;DHT22;10952;50.836;4.348;2023-03-24T04:22:11;12.10;99.90
21582;DHT22;10952;50.836;4.348;2023-03-24T04:24:50;12.00;99.90
21582;DHT22;10952;50.836;4.348;2023-03-24T04:33:07;12.00;99.90
21582;DHT22;10952;50.836;4.348;2023-03-24T04:35:45;12.00;99.90
21582;DHT22;10952;50.836;4.348;2023-03-24T04:38:17;11.90;99.90
21582;DHT22;10952;50.836;4.348;2023-03-24T04:40:45;11.90;99.90
21582;DHT22;10952;50.836;4.348;2023-03-24T04:43:15;12.00;99.90
21582;DHT22;10952;50.836;4.348;2023-03-24T04:45:43;12.00;99.90
21582;DHT22;10952;50.836;4.348;2023-03-24T04:48:16;12.10;99.90
21582;DHT22;10952;50.836;4.348;2023-03-24T04:50:52;12.10;99.90
21582;DHT22;10952;50.836;4.348;2023-03-24T04:53:18;12.10;99.90
21582;DHT22;10952;50.836;4.348;2023-03-24T04:58:31;12.10;99.90
21582;DHT22;10952;50.836;4.348;2023-03-24T05:00:57;12.10;99.90
21582;DHT22;10952;50.836;4.348;2023-03-24T05:03:23;11.90;99.90
21582;DHT22;10952;50.836;4.348;2023-03-24T05:05:50;11.90;99.90
21582;DHT22;10952;50.836;4.348;2023-03-24T05:08:18;11.90;99.90
21582;DHT22;10952;50.836;4.348;2023-03-24T05:10:44;11.80;99.90
21582;DHT22;10952;50.836;4.348;2023-03-24T05:13:11;11.80;99.90
21582;DHT22;10952;50.836;4.348;2023-03-24T05:15:36;11.80;99.90
21582;DHT22;10952;50.836;4.348;2023-03-24T05:18:03;11.90;99.90
21582;DHT22;10952;50.836;4.348;2023-03-24T05:20:30;12.00;99.90
21582;DHT22;10952;50.836;4.348;2023-03-24T05:22:55;11.90;99.90
21582;DHT22;10952;50.836;4.348;2023-03-24T05:25:21;12.00;99.90
21582;DHT22;10952;50.836;4.348;2023-03-24T05:27:47;12.00;99.90
21582;DHT22;10952;50.836;4.348;2023-03-24T05:30:14;11.90;99.90
21582;DHT22;10952;50.836;4.348;2023-03-24T05:32:39;11.90;99.90
21582;DHT22;10952;50.836;4.348;2023-03-24T05:35:06;11.90;99.90
21582;DHT22;10952;50.836;4.348;2023-03-24T05:37:31;11.80;99.90
21582;DHT22;10952;50.836;4.348;2023-03-24T05:39:57;11.70;99.90
21582;DHT22;10952;50.836;4.348;2023-03-24T05:42:23;11.60;99.90
21582;DHT22;10952;50.836;4.348;2023-03-24T05:44:49;11.60;99.90
21582;DHT22;10952;50.836;4.348;2023-03-24T05:47:15;11.60;99.90
21582;DHT22;10952;50.836;4.348;2023-03-24T05:49:47;11.60;99.90
21582;DHT22;10952;50.836;4.348;2023-03-24T05:52:13;11.50;99.90
21582;DHT22;10952;50.836;4.348;2023-03-24T05:54:40;11.40;99.90
21582;DHT22;10952;50.836;4.348;2023-03-24T05:57:06;11.40;99.90
21582;DHT22;10952;50.836;4.348;2023-03-24T05:59:35;11.40;99.90
21582;DHT22;10952;50.836;4.348;2023-03-24T06:02:02;11.30;99.90
21582;DHT22;10952;50.836;4.348;2023-03-24T06:04:28;11.30;99.90
21582;DHT22;10952;50.836;4.348;2023-03-24T06:06:55;11.30;99.90
21582;DHT22;10952;50.836;4.348;2023-03-24T06:09:28;11.40;99.90
21582;DHT22;10952;50.836;4.348;2023-03-24T06:11:55;11.40;99.90
21582;DHT22;10952;50.836;4.348;2023-03-24T06:14:21;11.50;99.90
21582;DHT22;10952;50.836;4.348;2023-03-24T06:16:46;11.50;99.90
21582;DHT22;10952;50.836;4.348;2023-03-24T06:19:15;11.60;99.90
21582;DHT22;10952;50.836;4.348;2023-03-24T06:21:41;11.60;99.90
21582;DHT22;10952;50.836;4.348;2023-03-24T06:24:09;11.60;99.90
21582;DHT22;10952;50.836;4.348;2023-03-24T06:26:39;11.60;99.90
21582;DHT22;10952;50.836;4.348;2023-03-24T06:29:06;11.70;99.90
21582;DHT22;10952;50.836;4.348;2023-03-24T06:31:32;11.70;99.90
21582;DHT22;10952;50.836;4.348;2023-03-24T06:34:00;11.80;99.90
21582;DHT22;10952;50.836;4.348;2023-03-24T06:36:25;11.90;99.90
21582;DHT22;10952;50.836;4.348;2023-03-24T06:38:51;11.90;99.90
21582;DHT22;10952;50.836;4.348;2023-03-24T06:41:17;11.80;99.90
21582;DHT22;10952;50.836;4.348;2023-03-24T06:43:42;11.60;99.90
21582;DHT22;10952;50.836;4.348;2023-03-24T06:46:08;11.70;99.90
21582;DHT22;10952;50.836;4.348;2023-03-24T06:48:35;11.70;99.90
21582;DHT22;10952;50.836;4.348;2023-03-24T06:51:01;11.70;99.90
21582;DHT22;10952;50.836;4.348;2023-03-24T06:53:27;11.80;99.90
21582;DHT22;10952;50.836;4.348;2023-03-24T06:55:52;11.70;99.90
21582;DHT22;10952;50.836;4.348;2023-03-24T06:58:18;11.70;99.90
21582;DHT22;10952;50.836;4.348;2023-03-24T07:00:44;11.70;99.90
21582;DHT22;10952;50.836;4.348;2023-03-24T07:03:11;11.80;99.90
21582;DHT22;10952;50.836;4.348;2023-03-24T07:05:42;11.70;99.90
21582;DHT22;10952;50.836;4.348;2023-03-24T07:08:09;11.90;99.90
21582;DHT22;10952;50.836;4.348;2023-03-24T07:10:37;12.00;99.90
21582;DHT22;10952;50.836;4.348;2023-03-24T07:13:04;12.10;99.90
21582;DHT22;10952;50.836;4.348;2023-03-24T07:15:31;12.10;99.90
21582;DHT22;10952;50.836;4.348;2023-03-24T07:17:57;12.10;99.90
21582;DHT22;10952;50.836;4.348;2023-03-24T07:20:23;11.90;99.90
21582;DHT22;10952;50.836;4.348;2023-03-24T07:22:49;11.90;99.90
21582;DHT22;10952;50.836;4.348;2023-03-24T07:25:14;11.90;99.90
21582;DHT22;10952;50.836;4.348;2023-03-24T07:27:45;12.00;99.90
21582;DHT22;10952;50.836;4.348;2023-03-24T07:30:11;12.10;99.90
21582;DHT22;10952;50.836;4.348;2023-03-24T07:32:38;12.20;99.90
21582;DHT22;10952;50.836;4.348;2023-03-24T07:35:05;12.30;99.90
21582;DHT22;10952;50.836;4.348;2023-03-24T07:37:31;12.30;99.90
21582;DHT22;10952;50.836;4.348;2023-03-24T07:39:57;12.50;99.90
21582;DHT22;10952;50.836;4.348;2023-03-24T07:42:23;12.60;99.90
21582;DHT22;10952;50.836;4.348;2023-03-24T07:44:49;12.70;99.90
21582;DHT22;10952;50.836;4.348;2023-03-24T07:47:15;12.80;99.90
21582;DHT22;10952;50.836;4.348;2023-03-24T07:49:41;12.70;99.90
21582;DHT22;10952;50.836;4.348;2023-03-24T07:52:07;12.80;99.90
21582;DHT22;10952;50.836;4.348;2023-03-24T07:54:33;12.90;99.90
21582;DHT22;10952;50.836;4.348;2023-03-24T07:57:00;13.00;99.90
21582;DHT22;10952;50.836;4.348;2023-03-24T07:59:25;13.10;99.90
21582;DHT22;10952;50.836;4.348;2023-03-24T08:01:52;13.20;99.90
21582;DHT22;10952;50.836;4.348;2023-03-24T08:04:18;13.10;99.90
21582;DHT22;10952;50.836;4.348;2023-03-24T08:06:44;13.00;99.90
21582;DHT22;10952;50.836;4.348;2023-03-24T08:09:10;12.90;99.90
21582;DHT22;10952;50.836;4.348;2023-03-24T08:11:36;12.90;99.90
21582;DHT22;10952;50.836;4.348;2023-03-24T08:14:02;12.90;99.90
21582;DHT22;10952;50.836;4.348;2023-03-24T08:16:28;12.90;99.90
21582;DHT22;10952;50.836;4.348;2023-03-24T08:18:54;12.90;99.90
21582;DHT22;10952;50.836;4.348;2023-03-24T08:21:23;12.90;99.90
21582;DHT22;10952;50.836;4.348;2023-03-24T08:23:49;12.80;99.90
21582;DHT22;10952;50.836;4.348;2023-03-24T08:26:15;12.70;99.90
21582;DHT22;10952;50.836;4.348;2023-03-24T08:28:41;12.70;99.90
21582;DHT22;10952;50.836;4.348;2023-03-24T08:31:06;12.80;99.90
21582;DHT22;10952;50.836;4.348;2023-03-24T08:33:33;13.00;99.90
21582;DHT22;10952;50.836;4.348;2023-03-24T08:35:59;13.20;99.90
21582;DHT22;10952;50.836;4.348;2023-03-24T08:38:26;13.40;99.90
21582;DHT22;10952;50.836;4.348;2023-03-24T08:41:00;13.40;99.90
21582;DHT22;10952;50.836;4.348;2023-03-24T08:43:32;13.30;99.90
21582;DHT22;10952;50.836;4.348;2023-03-24T08:45:59;13.30;99.90
21582;DHT22;10952;50.836;4.348;2023-03-24T08:48:27;13.40;99.90
21582;DHT22;10952;50.836;4.348;2023-03-24T08:50:53;13.50;99.90
21582;DHT22;10952;50.836;4.348;2023-03-24T08:53:19;13.50;99.90
21582;DHT22;10952;50.836;4.348;2023-03-24T08:55:45;13.60;99.90
21582;DHT22;10952;50.836;4.348;2023-03-24T08:58:16;13.70;99.90
21582;DHT22;10952;50.836;4.348;2023-03-24T09:00:42;13.80;99.90
21582;DHT22;10952;50.836;4.348;2023-03-24T09:03:12;13.70;99.90
21582;DHT22;10952;50.836;4.348;2023-03-24T09:05:39;13.60;99.90
21582;DHT22;10952;50.836;4.348;2023-03-24T09:08:05;13.80;99.90
21582;DHT22;10952;50.836;4.348;2023-03-24T09:10:32;13.80;99.90
21582;DHT22;10952;50.836;4.348;2023-03-24T09:12:58;14.00;99.90
21582;DHT22;10952;50.836;4.348;2023-03-24T09:15:23;14.10;99.90
21582;DHT22;10952;50.836;4.348;2023-03-24T09:17:49;14.10;99.90
21582;DHT22;10952;50.836;4.348;2023-03-24T09:20:15;14.20;99.90
21582;DHT22;10952;50.836;4.348;2023-03-24T09:22:42;14.30;99.90
21582;DHT22;10952;50.836;4.348;2023-03-24T09:25:12;14.60;99.90
21582;DHT22;10952;50.836;4.348;2023-03-24T09:27:38;14.80;99.90
21582;DHT22;10952;50.836;4.348;2023-03-24T09:30:05;14.80;99.90
21582;DHT22;10952;50.836;4.348;2023-03-24T09:32:31;14.70;99.90
21582;DHT22;10952;50.836;4.348;2023-03-24T09:34:58;14.70;99.90
21582;DHT22;10952;50.836;4.348;2023-03-24T09:37:24;14.70;99.90
21582;DHT22;10952;50.836;4.348;2023-03-24T09:39:50;14.50;99.90
21582;DHT22;10952;50.836;4.348;2023-03-24T09:42:22;14.50;99.90
21582;DHT22;10952;50.836;4.348;2023-03-24T09:44:57;14.40;99.90
21582;DHT22;10952;50.836;4.348;2023-03-24T09:49:52;14.60;99.90
21582;DHT22;10952;50.836;4.348;2023-03-24T09:52:26;14.60;99.90
21582;DHT22;10952;50.836;4.348;2023-03-24T09:54:55;14.50;99.90
21582;DHT22;10952;50.836;4.348;2023-03-24T09:59:52;14.50;99.90
21582;DHT22;10952;50.836;4.348;2023-03-24T10:02:19;14.70;99.90
21582;DHT22;10952;50.836;4.348;2023-03-24T10:04:46;14.80;99.90
21582;DHT22;10952;50.836;4.348;2023-03-24T10:07:21;14.90;99.90
21582;DHT22;10952;50.836;4.348;2023-03-24T10:09:54;14.90;99.90
21582;DHT22;10952;50.836;4.348;2023-03-24T10:28:45;15.40;99.90
21582;DHT22;10952;50.836;4.348;2023-03-24T10:31:15;15.20;99.90
21582;DHT22;10952;50.836;4.348;2023-03-24T10:33:43;15.10;99.90
21582;DHT22;10952;50.836;4.348;2023-03-24T10:36:15;15.10;99.90
21582;DHT22;10952;50.836;4.348;2023-03-24T10:38:42;15.40;99.90
21582;DHT22;10952;50.836;4.348;2023-03-24T10:41:18;15.60;99.90
21582;DHT22;10952;50.836;4.348;2023-03-24T10:43:44;15.90;99.90
21582;DHT22;10952;50.836;4.348;2023-03-24T10:46:13;15.90;99.90
21582;DHT22;10952;50.836;4.348;2023-03-24T10:48:44;15.80;99.90
21582;DHT22;10952;50.836;4.348;2023-03-24T10:51:15;15.70;99.90
21582;DHT22;10952;50.836;4.348;2023-03-24T10:53:43;15.60;99.90
21582;DHT22;10952;50.836;4.348;2023-03-24T10:56:17;15.70;99.90
21582;DHT22;10952;50.836;4.348;2023-03-24T10:58:45;16.10;99.90
21582;DHT22;10952;50.836;4.348;2023-03-24T11:01:26;16.20;99.90
21582;DHT22;10952;50.836;4.348;2023-03-24T11:03:59;16.40;99.90
21582;DHT22;10952;50.836;4.348;2023-03-24T11:06:29;16.20;99.90
21582;DHT22;10952;50.836;4.348;2023-03-24T11:09:19;16.00;99.90
21582;DHT22;10952;50.836;4.348;2023-03-24T11:11:45;15.70;99.90
21582;DHT22;10952;50.836;4.348;2023-03-24T11:14:42;15.70;99.90
21582;DHT22;10952;50.836;4.348;2023-03-24T11:17:13;15.90;99.90
21582;DHT22;10952;50.836;4.348;2023-03-24T11:19:52;16.10;99.90
21582;DHT22;10952;50.836;4.348;2023-03-24T11:22:18;16.40;99.90
21582;DHT22;10952;50.836;4.348;2023-03-24T11:24:48;16.60;99.90
21582;DHT22;10952;50.836;4.348;2023-03-24T11:27:15;16.60;99.90
21582;DHT22;10952;50.836;4.348;2023-03-24T11:29:43;16.30;99.90
21582;DHT22;10952;50.836;4.348;2023-03-24T11:32:20;16.40;99.90
21582;DHT22;10952;50.836;4.348;2023-03-24T11:34:49;16.80;99.90
21582;DHT22;10952;50.836;4.348;2023-03-24T11:37:22;17.40;99.90
21582;DHT22;10952;50.836;4.348;2023-03-24T11:40:22;17.60;99.90
21582;DHT22;10952;50.836;4.348;2023-03-24T11:42:59;17.60;99.90
21582;DHT22;10952;50.836;4.348;2023-03-24T11:45:39;18.40;99.90
21582;DHT22;10952;50.836;4.348;2023-03-24T11:51:04;19.90;99.90
21582;DHT22;10952;50.836;4.348;2023-03-24T11:53:49;20.90;99.90
21582;DHT22;10952;50.836;4.348;2023-03-24T11:56:32;21.30;99.90
21582;DHT22;10952;50.836;4.348;2023-03-24T11:59:35;20.50;99.90
21582;DHT22;10952;50.836;4.348;2023-03-24T12:02:16;19.50;99.90
21582;DHT22;10952;50.836;4.348;2023-03-24T12:04:58;19.00;99.90
21582;DHT22;10952;50.836;4.348;2023-03-24T12:13:09;17.50;99.90
21582;DHT22;10952;50.836;4.348;2023-03-24T12:18:29;17.00;99.90
21582;DHT22;10952;50.836;4.348;2023-03-24T12:21:22;16.60;99.90
21582;DHT22;10952;50.836;4.348;2023-03-24T12:23:58;16.30;99.90
21582;DHT22;10952;50.836;4.348;2023-03-24T12:26:27;16.60;99.90
21582;DHT22;10952;50.836;4.348;2023-03-24T12:29:06;16.40;99.90
21582;DHT22;10952;50.836;4.348;2023-03-24T12:31:47;16.20;99.90
21582;DHT22;10952;50.836;4.348;2023-03-24T12:40:05;18.20;99.90
21582;DHT22;10952;50.836;4.348;2023-03-24T12:42:39;18.10;99.90
21582;DHT22;10952;50.836;4.348;2023-03-24T12:45:16;17.70;99.90
21582;DHT22;10952;50.836;4.348;2023-03-24T12:50:43;17.60;99.90
21582;DHT22;10952;50.836;4.348;2023-03-24T12:58:30;17.00;99.90
21582;DHT22;10952;50.836;4.348;2023-03-24T13:01:17;16.50;99.90
21582;DHT22;10952;50.836;4.348;2023-03-24T13:03:54;16.30;99.90
21582;DHT22;10952;50.836;4.348;2023-03-24T13:06:29;16.00;99.90
21582;DHT22;10952;50.836;4.348;2023-03-24T13:09:07;15.90;99.90
21582;DHT22;10952;50.836;4.348;2023-03-24T13:11:46;15.50;99.90
21582;DHT22;10952;50.836;4.348;2023-03-24T13:14:30;15.20;99.90
21582;DHT22;10952;50.836;4.348;2023-03-24T13:17:11;14.90;99.90
21582;DHT22;10952;50.836;4.348;2023-03-24T13:19:39;14.70;99.90
21582;DHT22;10952;50.836;4.348;2023-03-24T13:22:11;14.70;99.90
21582;DHT22;10952;50.836;4.348;2023-03-24T13:24:38;14.90;99.90
21582;DHT22;10952;50.836;4.348;2023-03-24T13:27:19;14.80;99.90
21582;DHT22;10952;50.836;4.348;2023-03-24T13:32:49;14.60;99.90
21582;DHT22;10952;50.836;4.348;2023-03-24T13:38:15;14.90;99.90
21582;DHT22;10952;50.836;4.348;2023-03-24T13:40:46;15.00;99.90
21582;DHT22;10952;50.836;4.348;2023-03-24T13:43:21;15.10;99.90
21582;DHT22;10952;50.836;4.348;2023-03-24T13:45:57;14.80;99.90
21582;DHT22;10952;50.836;4.348;2023-03-24T13:48:41;14.80;99.90
21582;DHT22;10952;50.836;4.348;2023-03-24T13:59:06;15.40;99.90
21582;DHT22;10952;50.836;4.348;2023-03-24T14:01:40;15.70;99.90
21582;DHT22;10952;50.836;4.348;2023-03-24T14:06:55;16.10;99.90
21582;DHT22;10952;50.836;4.348;2023-03-24T14:12:16;16.00;99.90
21582;DHT22;10952;50.836;4.348;2023-03-24T14:15:13;15.90;99.90
21582;DHT22;10952;50.836;4.348;2023-03-24T14:17:42;15.70;99.90
21582;DHT22;10952;50.836;4.348;2023-03-24T14:22:40;15.60;99.90
21582;DHT22;10952;50.836;4.348;2023-03-24T14:27:43;15.60;99.90
21582;DHT22;10952;50.836;4.348;2023-03-24T14:32:58;16.00;99.90
21582;DHT22;10952;50.836;4.348;2023-03-24T14:38:19;16.00;99.90
21582;DHT22;10952;50.836;4.348;2023-03-24T14:40:51;16.10;99.90
21582;DHT22;10952;50.836;4.348;2023-03-24T14:56:51;16.00;99.90
21582;DHT22;10952;50.836;4.348;2023-03-24T15:02:34;15.80;99.90
21582;DHT22;10952;50.836;4.348;2023-03-24T15:07:43;15.90;99.90
21582;DHT22;10952;50.836;4.348;2023-03-24T15:10:14;15.90;99.90
21582;DHT22;10952;50.836;4.348;2023-03-24T15:12:47;16.00;99.90
21582;DHT22;10952;50.836;4.348;2023-03-24T15:15:20;15.90;99.90
21582;DHT22;10952;50.836;4.348;2023-03-24T15:17:47;15.60;99.90
21582;DHT22;10952;50.836;4.348;2023-03-24T15:20:28;15.60;99.90
21582;DHT22;10952;50.836;4.348;2023-03-24T15:23:07;15.70;99.90
21582;DHT22;10952;50.836;4.348;2023-03-24T15:25:33;15.70;99.90
21582;DHT22;10952;50.836;4.348;2023-03-24T15:27:58;15.60;99.90
21582;DHT22;10952;50.836;4.348;2023-03-24T15:30:25;15.80;99.90
21582;DHT22;10952;50.836;4.348;2023-03-24T15:32:52;15.90;99.90
21582;DHT22;10952;50.836;4.348;2023-03-24T15:35:21;16.00;99.90
21582;DHT22;10952;50.836;4.348;2023-03-24T15:37:52;16.20;99.90
21582;DHT22;10952;50.836;4.348;2023-03-24T15:43:04;16.00;99.90
21582;DHT22;10952;50.836;4.348;2023-03-24T15:45:43;15.80;99.90
21582;DHT22;10952;50.836;4.348;2023-03-24T15:48:14;15.70;99.90
21582;DHT22;10952;50.836;4.348;2023-03-24T15:51:13;15.80;99.90
21582;DHT22;10952;50.836;4.348;2023-03-24T15:53:45;15.70;99.90
21582;DHT22;10952;50.836;4.348;2023-03-24T15:56:26;15.60;99.90
21582;DHT22;10952;50.836;4.348;2023-03-24T15:58:56;15.60;99.90
21582;DHT22;10952;50.836;4.348;2023-03-24T16:01:31;15.50;99.90
21582;DHT22;10952;50.836;4.348;2023-03-24T16:04:17;15.60;99.90
21582;DHT22;10952;50.836;4.348;2023-03-24T16:06:51;15.40;99.90
21582;DHT22;10952;50.836;4.348;2023-03-24T16:09:20;15.40;99.90
21582;DHT22;10952;50.836;4.348;2023-03-24T16:11:47;15.30;99.90
21582;DHT22;10952;50.836;4.348;2023-03-24T16:14:29;15.20;99.90
21582;DHT22;10952;50.836;4.348;2023-03-24T16:17:00;15.10;99.90
21582;DHT22;10952;50.836;4.348;2023-03-24T16:19:27;15.00;99.90
21582;DHT22;10952;50.836;4.348;2023-03-24T16:21:53;15.00;99.90
21582;DHT22;10952;50.836;4.348;2023-03-24T16:24:19;14.90;99.90
21582;DHT22;10952;50.836;4.348;2023-03-24T16:26:45;14.90;99.90
21582;DHT22;10952;50.836;4.348;2023-03-24T16:29:18;14.80;99.90
21582;DHT22;10952;50.836;4.348;2023-03-24T16:31:47;14.90;99.90
21582;DHT22;10952;50.836;4.348;2023-03-24T16:34:14;15.00;99.90
21582;DHT22;10952;50.836;4.348;2023-03-24T16:36:40;15.00;99.90
21582;DHT22;10952;50.836;4.348;2023-03-24T16:39:13;15.00;99.90
21582;DHT22;10952;50.836;4.348;2023-03-24T16:41:40;15.00;99.90
21582;DHT22;10952;50.836;4.348;2023-03-24T16:44:05;15.00;99.90
21582;DHT22;10952;50.836;4.348;2023-03-24T16:46:33;15.10;99.90
21582;DHT22;10952;50.836;4.348;2023-03-24T16:49:00;15.00;99.90
21582;DHT22;10952;50.836;4.348;2023-03-24T16:51:26;14.90;99.90
21582;DHT22;10952;50.836;4.348;2023-03-24T16:53:52;14.80;99.90
21582;DHT22;10952;50.836;4.348;2023-03-24T16:56:19;14.60;99.90
21582;DHT22;10952;50.836;4.348;2023-03-24T16:58:46;14.30;99.90
21582;DHT22;10952;50.836;4.348;2023-03-24T17:01:18;14.00;99.90
21582;DHT22;10952;50.836;4.348;2023-03-24T17:03:56;13.90;99.90
21582;DHT22;10952;50.836;4.348;2023-03-24T17:06:22;14.00;99.90
21582;DHT22;10952;50.836;4.348;2023-03-24T17:08:48;13.80;99.90
21582;DHT22;10952;50.836;4.348;2023-03-24T17:11:25;13.60;99.90
21582;DHT22;10952;50.836;4.348;2023-03-24T17:13:51;13.40;99.90
21582;DHT22;10952;50.836;4.348;2023-03-24T17:16:18;13.00;99.90
21582;DHT22;10952;50.836;4.348;2023-03-24T17:18:44;12.80;99.90
21582;DHT22;10952;50.836;4.348;2023-03-24T17:21:15;12.70;99.90
21582;DHT22;10952;50.836;4.348;2023-03-24T17:23:42;12.50;99.90
21582;DHT22;10952;50.836;4.348;2023-03-24T17:26:11;12.40;99.90
21582;DHT22;10952;50.836;4.348;2023-03-24T17:28:37;12.40;99.90
21582;DHT22;10952;50.836;4.348;2023-03-24T17:31:03;12.40;99.90
21582;DHT22;10952;50.836;4.348;2023-03-24T17:33:28;12.50;99.90
21582;DHT22;10952;50.836;4.348;2023-03-24T17:35:54;12.50;99.90
21582;DHT22;10952;50.836;4.348;2023-03-24T17:38:20;12.40;99.90
21582;DHT22;10952;50.836;4.348;2023-03-24T17:40:46;12.40;99.90
21582;DHT22;10952;50.836;4.348;2023-03-24T17:43:12;12.40;99.90
21582;DHT22;10952;50.836;4.348;2023-03-24T17:45:41;12.40;99.90
21582;DHT22;10952;50.836;4.348;2023-03-24T17:48:06;12.50;99.90
21582;DHT22;10952;50.836;4.348;2023-03-24T17:50:32;12.40;99.90
21582;DHT22;10952;50.836;4.348;2023-03-24T17:52:58;12.40;99.90
21582;DHT22;10952;50.836;4.348;2023-03-24T17:55:25;12.50;99.90
21582;DHT22;10952;50.836;4.348;2023-03-24T17:57:51;12.50;99.90
21582;DHT22;10952;50.836;4.348;2023-03-24T18:00:17;12.50;99.90
21582;DHT22;10952;50.836;4.348;2023-03-24T18:02:43;12.50;99.90
21582;DHT22;10952;50.836;4.348;2023-03-24T18:05:10;12.60;99.90
21582;DHT22;10952;50.836;4.348;2023-03-24T18:07:37;12.60;99.90
21582;DHT22;10952;50.836;4.348;2023-03-24T18:10:03;12.40;99.90
21582;DHT22;10952;50.836;4.348;2023-03-24T18:12:29;12.40;99.90
21582;DHT22;10952;50.836;4.348;2023-03-24T18:14:54;12.20;99.90
21582;DHT22;10952;50.836;4.348;2023-03-24T18:17:20;12.20;99.90
21582;DHT22;10952;50.836;4.348;2023-03-24T18:19:46;12.10;99.90
21582;DHT22;10952;50.836;4.348;2023-03-24T18:22:11;12.10;99.90
21582;DHT22;10952;50.836;4.348;2023-03-24T18:24:37;12.00;99.90
21582;DHT22;10952;50.836;4.348;2023-03-24T18:27:03;11.90;99.90